createdAt,value
2018-11-29T00:00:26.951Z,23.20
2018-11-29T00:02:55.281Z,23.33
2018-11-29T00:05:23.675Z,23.37
2018-11-29T00:07:52.153Z,23.63
2018-11-29T00:10:20.488Z,23.73
2018-11-29T00:12:48.862Z,23.43
2018-11-29T00:15:17.207Z,23.60
2018-11-29T00:17:45.553Z,23.20
2018-11-29T00:20:17.591Z,23.83
2018-11-29T00:22:46.662Z,21.70
2018-11-29T00:25:15.866Z,23.97
2018-11-29T00:27:44.553Z,23.07
2018-11-29T00:30:24.265Z,22.67
2018-11-29T00:32:53.617Z,23.00
2018-11-29T00:35:21.939Z,22.30
2018-11-29T00:37:50.300Z,23.20
2018-11-29T00:40:20.308Z,21.60
2018-11-29T00:42:48.731Z,22.80
2018-11-29T00:45:18.999Z,23.83
2018-11-29T00:47:47.804Z,26.67
2018-11-29T00:50:16.832Z,24.47
2018-11-29T00:52:45.962Z,23.80
2018-11-29T00:55:16.315Z,23.23
2018-11-29T00:57:44.667Z,25.23
2018-11-29T01:00:16.054Z,26.50
2018-11-29T01:02:45.321Z,24.20
2018-11-29T01:05:13.936Z,24.00
2018-11-29T01:07:43.712Z,23.37
2018-11-29T01:10:13.837Z,23.67
2018-11-29T01:12:42.245Z,21.70
2018-11-29T01:15:12.658Z,22.63
2018-11-29T01:17:40.993Z,23.17
2018-11-29T01:20:11.280Z,23.30
2018-11-29T01:22:39.641Z,21.70
2018-11-29T01:25:10.301Z,21.77
2018-11-29T01:27:38.630Z,23.07
2018-11-29T01:30:10.009Z,23.23
2018-11-29T01:32:39.870Z,22.07
2018-11-29T01:35:10.636Z,22.60
2018-11-29T01:37:40.702Z,23.17
2018-11-29T01:40:16.122Z,22.90
2018-11-29T01:42:46.468Z,23.50
2018-11-29T01:45:14.828Z,23.70
2018-11-29T01:47:43.158Z,22.77
2018-11-29T01:50:12.163Z,21.77
2018-11-29T01:52:40.467Z,22.50
2018-11-29T01:55:09.987Z,22.40
2018-11-29T01:57:38.304Z,21.13
2018-11-29T02:00:11.088Z,22.80
2018-11-29T02:02:39.874Z,22.90
2018-11-29T02:05:10.218Z,23.83
2018-11-29T02:07:39.838Z,26.47
2018-11-29T02:10:19.395Z,23.40
2018-11-29T02:12:47.781Z,25.03
2018-11-29T02:15:16.135Z,28.43
2018-11-29T02:17:44.459Z,26.90
2018-11-29T02:20:18.603Z,24.67
2018-11-29T02:22:47.398Z,23.30
2018-11-29T02:25:15.750Z,23.33
2018-11-29T02:27:44.073Z,24.07
2018-11-29T02:30:15.703Z,24.73
2018-11-29T02:32:43.999Z,23.87
2018-11-29T02:35:12.504Z,23.87
2018-11-29T02:37:42.244Z,24.03
2018-11-29T02:40:13.455Z,24.33
2018-11-29T02:42:41.973Z,23.40
2018-11-29T02:45:11.818Z,23.03
2018-11-29T02:47:40.175Z,23.90
2018-11-29T02:50:09.442Z,23.97
2018-11-29T02:52:37.857Z,23.73
2018-11-29T02:55:09.587Z,23.50
2018-11-29T02:57:38.539Z,24.00
2018-11-29T03:00:16.650Z,22.07
2018-11-29T03:02:45.027Z,24.20
2018-11-29T03:05:13.487Z,26.33
2018-11-29T03:07:41.847Z,25.80
2018-11-29T03:10:11.219Z,27.07
2018-11-29T03:12:39.548Z,29.20
2018-11-29T03:15:14.633Z,25.80
2018-11-29T03:17:44.015Z,24.23
2018-11-29T03:20:13.269Z,22.30
2018-11-29T03:22:41.645Z,23.50
2018-11-29T03:25:11.842Z,23.63
2018-11-29T03:27:41.109Z,23.83
2018-11-29T03:30:12.396Z,24.10
2018-11-29T03:32:40.740Z,23.97
2018-11-29T03:35:11.214Z,23.53
2018-11-29T03:37:39.546Z,22.37
2018-11-29T03:40:10.959Z,22.30
2018-11-29T03:42:39.293Z,22.83
2018-11-29T03:45:09.380Z,24.23
2018-11-29T03:47:37.775Z,22.73
2018-11-29T03:50:10.095Z,22.07
2018-11-29T03:52:39.642Z,23.03
2018-11-29T03:55:09.840Z,22.37
2018-11-29T03:57:39.386Z,23.57
2018-11-29T04:00:10.843Z,21.43
2018-11-29T04:02:39.138Z,21.90
2018-11-29T04:05:09.668Z,22.17
2018-11-29T04:07:37.986Z,22.70
2018-11-29T04:10:08.388Z,22.17
2018-11-29T04:12:36.713Z,22.37
2018-11-29T04:15:05.731Z,24.00
2018-11-29T04:17:40.387Z,22.83
2018-11-29T04:20:03.212Z,21.20
2018-11-29T04:22:31.511Z,23.20
2018-11-29T04:24:59.807Z,22.57
2018-11-29T04:27:29.090Z,23.80
2018-11-29T04:29:57.393Z,22.23
2018-11-29T04:32:25.709Z,21.87
2018-11-29T04:34:54.042Z,22.73
2018-11-29T04:37:22.391Z,22.67
2018-11-29T04:39:50.693Z,21.47
2018-11-29T04:42:19.086Z,21.53
2018-11-29T04:44:47.380Z,21.43
2018-11-29T04:47:16.030Z,22.50
2018-11-29T04:49:44.345Z,21.77
2018-11-29T04:52:14.383Z,21.47
2018-11-29T04:54:42.918Z,22.17
2018-11-29T04:57:11.234Z,21.80
2018-11-29T04:59:39.531Z,25.63
2018-11-29T05:02:07.839Z,21.63
2018-11-29T05:04:36.154Z,22.27
2018-11-29T05:07:04.467Z,22.50
2018-11-29T05:09:32.821Z,22.73
2018-11-29T05:12:01.105Z,22.30
2018-11-29T05:14:29.411Z,22.13
2018-11-29T05:16:57.719Z,21.93
2018-11-29T05:19:26.055Z,21.57
2018-11-29T05:21:54.351Z,23.10
2018-11-29T05:24:22.692Z,23.20
2018-11-29T05:26:51.000Z,21.33
2018-11-29T05:29:19.309Z,21.27
2018-11-29T05:31:48.140Z,21.23
2018-11-29T05:34:16.423Z,22.90
2018-11-29T05:36:44.734Z,21.87
2018-11-29T05:39:13.069Z,23.13
2018-11-29T05:41:41.403Z,22.67
2018-11-29T05:44:09.705Z,22.17
2018-11-29T05:46:38.039Z,23.10
2018-11-29T05:49:06.364Z,22.70
2018-11-29T05:51:34.665Z,23.67
2018-11-29T05:54:02.965Z,22.27
2018-11-29T05:56:31.267Z,21.00
2018-11-29T05:58:59.553Z,21.53
2018-11-29T06:01:38.298Z,22.17
2018-11-29T06:04:06.913Z,21.83
2018-11-29T06:06:35.236Z,23.37
2018-11-29T06:09:03.939Z,22.07
2018-11-29T06:11:32.264Z,23.20
2018-11-29T06:14:00.588Z,22.53
2018-11-29T06:16:28.895Z,22.73
2018-11-29T06:18:57.221Z,23.67
2018-11-29T06:21:25.514Z,23.40
2018-11-29T06:23:53.831Z,23.20
2018-11-29T06:26:22.163Z,22.23
2018-11-29T06:28:50.477Z,23.33
2018-11-29T06:31:18.778Z,23.57
2018-11-29T06:33:47.077Z,21.87
2018-11-29T06:36:15.362Z,23.50
2018-11-29T06:38:43.755Z,22.50
2018-11-29T06:41:12.053Z,23.03
2018-11-29T06:43:40.383Z,23.40
2018-11-29T06:46:08.723Z,23.20
2018-11-29T06:48:37.027Z,22.43
2018-11-29T06:51:05.379Z,22.77
2018-11-29T06:53:39.075Z,23.83
2018-11-29T06:56:07.419Z,23.03
2018-11-29T06:58:35.709Z,22.37
2018-11-29T07:01:04.085Z,21.90
2018-11-29T07:03:32.373Z,22.27
2018-11-29T07:06:00.705Z,23.37
2018-11-29T07:08:29.025Z,22.80
2018-11-29T07:10:57.344Z,22.93
2018-11-29T07:13:25.641Z,23.07
2018-11-29T07:15:53.967Z,21.90
2018-11-29T07:18:22.301Z,22.47
2018-11-29T07:21:01.716Z,21.57
2018-11-29T07:23:30.025Z,23.30
2018-11-29T07:25:58.352Z,22.03
2018-11-29T07:28:26.671Z,22.27
2018-11-29T07:30:54.985Z,22.40
2018-11-29T07:33:23.312Z,22.07
2018-11-29T07:35:51.651Z,22.90
2018-11-29T07:38:19.979Z,21.93
2018-11-29T07:40:48.295Z,22.97
2018-11-29T07:43:16.613Z,21.80
2018-11-29T07:45:44.901Z,20.37
2018-11-29T07:48:13.213Z,20.87
2018-11-29T07:50:41.506Z,21.27
2018-11-29T07:53:09.831Z,20.57
2018-11-29T07:55:38.145Z,19.93
2018-11-29T07:58:07.035Z,20.63
2018-11-29T08:00:35.373Z,21.77
2018-11-29T08:03:03.759Z,20.67
2018-11-29T08:05:32.050Z,20.67
2018-11-29T08:08:00.364Z,21.07
2018-11-29T08:10:28.687Z,20.20
2018-11-29T08:12:56.989Z,19.87
2018-11-29T08:15:25.323Z,19.70
2018-11-29T08:17:53.647Z,20.20
2018-11-29T08:20:22.370Z,20.23
2018-11-29T08:22:50.715Z,19.37
2018-11-29T08:25:19.003Z,20.00
2018-11-29T08:27:47.408Z,19.63
2018-11-29T08:30:16.241Z,18.73
2018-11-29T08:32:44.611Z,18.83
2018-11-29T08:35:13.768Z,19.77
2018-11-29T08:37:43.295Z,19.27
2018-11-29T08:40:14.877Z,19.23
2018-11-29T08:42:43.194Z,19.30
2018-11-29T08:45:11.823Z,18.70
2018-11-29T08:47:40.150Z,18.93
2018-11-29T08:50:11.539Z,17.13
2018-11-29T08:52:40.433Z,19.20
2018-11-29T08:55:10.902Z,18.60
2018-11-29T08:57:39.204Z,18.60
2018-11-29T09:00:11.639Z,18.90
2018-11-29T09:02:40.191Z,18.53
2018-11-29T09:05:09.662Z,18.80
2018-11-29T09:07:37.972Z,18.97
2018-11-29T09:10:09.759Z,19.73
2018-11-29T09:12:38.092Z,22.10
2018-11-29T09:15:10.964Z,21.57
2018-11-29T09:17:39.635Z,25.83
2018-11-29T09:20:15.096Z,19.00
2018-11-29T09:22:43.458Z,18.57
2018-11-29T09:25:16.535Z,19.33
2018-11-29T09:27:44.922Z,17.93
2018-11-29T09:30:16.211Z,18.87
2018-11-29T09:32:45.291Z,22.33
2018-11-29T09:35:13.667Z,18.13
2018-11-29T09:37:41.990Z,19.77
2018-11-29T09:40:12.444Z,18.73
2018-11-29T09:42:40.864Z,20.20
2018-11-29T09:45:12.464Z,18.67
2018-11-29T09:47:40.777Z,17.87
2018-11-29T09:50:11.338Z,19.83
2018-11-29T09:52:40.142Z,16.63
2018-11-29T09:55:09.658Z,16.27
2018-11-29T09:57:38.597Z,17.60
2018-11-29T10:00:27.648Z,17.23
2018-11-29T10:02:57.686Z,17.10
2018-11-29T10:05:26.026Z,17.33
2018-11-29T10:07:54.356Z,17.37
2018-11-29T10:10:22.682Z,18.40
2018-11-29T10:12:50.993Z,18.23
2018-11-29T10:15:19.290Z,17.50
2018-11-29T10:17:47.582Z,17.20
2018-11-29T10:20:15.993Z,17.53
2018-11-29T10:22:44.270Z,16.60
2018-11-29T10:25:14.074Z,18.00
2018-11-29T10:27:44.853Z,17.93
2018-11-29T10:30:19.701Z,18.97
2018-11-29T10:32:48.086Z,17.23
2018-11-29T10:35:16.400Z,17.33
2018-11-29T10:37:44.687Z,18.17
2018-11-29T10:40:13.021Z,18.57
2018-11-29T10:42:41.346Z,19.90
2018-11-29T10:45:12.966Z,19.10
2018-11-29T10:47:41.858Z,18.00
2018-11-29T10:50:11.619Z,18.93
2018-11-29T10:52:39.957Z,18.23
2018-11-29T10:55:17.027Z,17.97
2018-11-29T10:57:45.350Z,18.33
2018-11-29T11:00:21.461Z,19.77
2018-11-29T11:02:55.189Z,20.10
2018-11-29T11:05:23.507Z,19.03
2018-11-29T11:07:51.811Z,19.23
2018-11-29T11:10:20.128Z,19.37
2018-11-29T11:12:48.436Z,19.27
2018-11-29T11:15:16.803Z,19.63
2018-11-29T11:17:45.143Z,20.47
2018-11-29T11:20:13.518Z,21.23
2018-11-29T11:22:41.874Z,21.60
2018-11-29T11:25:10.874Z,21.33
2018-11-29T11:27:39.220Z,20.63
2018-11-29T11:30:23.414Z,20.90
2018-11-29T11:32:52.392Z,21.03
2018-11-29T11:35:20.762Z,20.47
2018-11-29T11:37:49.070Z,20.73
2018-11-29T11:40:17.616Z,20.37
2018-11-29T11:42:46.538Z,22.07
2018-11-29T11:45:16.784Z,21.17
2018-11-29T11:47:45.178Z,21.00
2018-11-29T11:50:14.539Z,21.90
2018-11-29T11:52:42.877Z,21.37
2018-11-29T11:55:11.751Z,22.97
2018-11-29T11:57:40.159Z,21.93
2018-11-29T12:00:18.332Z,22.43
2018-11-29T12:02:47.744Z,20.97
2018-11-29T12:05:15.935Z,21.30
2018-11-29T12:07:44.284Z,21.73
2018-11-29T12:10:13.947Z,21.63
2018-11-29T12:12:42.275Z,22.57
2018-11-29T12:15:12.559Z,22.00
2018-11-29T12:17:41.460Z,20.83
2018-11-29T12:20:12.781Z,21.93
2018-11-29T12:22:41.303Z,22.27
2018-11-29T12:25:10.946Z,23.10
2018-11-29T12:27:39.287Z,21.63
2018-11-29T12:30:17.464Z,21.87
2018-11-29T12:32:45.814Z,22.20
2018-11-29T12:35:14.445Z,21.57
2018-11-29T12:37:42.751Z,20.53
2018-11-29T12:40:12.326Z,21.53
2018-11-29T12:42:40.672Z,20.33
2018-11-29T12:45:11.670Z,22.53
2018-11-29T12:47:40.072Z,19.97
2018-11-29T12:50:11.759Z,19.53
2018-11-29T12:52:40.124Z,18.70
2018-11-29T12:55:09.323Z,20.53
2018-11-29T12:57:37.623Z,18.87
2018-11-29T13:00:14.905Z,20.30
2018-11-29T13:02:52.043Z,19.60
2018-11-29T13:05:20.383Z,19.80
2018-11-29T13:07:49.031Z,18.53
2018-11-29T13:10:19.445Z,19.10
2018-11-29T13:12:47.830Z,18.73
2018-11-29T13:15:18.281Z,18.87
2018-11-29T13:17:46.594Z,18.23
2018-11-29T13:20:16.692Z,18.77
2018-11-29T13:22:45.075Z,19.93
2018-11-29T13:25:16.639Z,19.30
2018-11-29T13:27:45.076Z,43.63
2018-11-29T13:30:15.335Z,27.13
2018-11-29T13:32:44.007Z,34.77
2018-11-29T13:35:18.120Z,18.73
2018-11-29T13:37:49.802Z,17.80
2018-11-29T13:42:46.499Z,18.40
2018-11-29T13:45:14.811Z,20.03
2018-11-29T13:47:43.155Z,18.37
2018-11-29T13:50:12.760Z,19.77
2018-11-29T13:52:41.099Z,18.27
2018-11-29T13:55:10.565Z,18.63
2018-11-29T13:57:38.995Z,19.53
2018-11-29T14:00:18.339Z,19.70
2018-11-29T14:02:47.883Z,19.83
2018-11-29T14:05:16.227Z,19.50
2018-11-29T14:07:44.542Z,20.30
2018-11-29T14:10:14.927Z,19.43
2018-11-29T14:12:43.690Z,19.30
2018-11-29T14:15:23.016Z,19.50
2018-11-29T14:17:51.394Z,20.33
2018-11-29T14:20:19.768Z,20.27
2018-11-29T14:22:48.075Z,20.57
2018-11-29T14:25:16.850Z,26.47
2018-11-29T14:27:49.271Z,39.60
2018-11-29T14:30:20.561Z,33.53
2018-11-29T14:32:49.068Z,19.93
2018-11-29T14:35:17.416Z,19.97
2018-11-29T14:37:45.767Z,20.03
2018-11-29T14:40:22.660Z,18.67
2018-11-29T14:42:57.447Z,19.23
2018-11-29T14:45:26.575Z,18.87
2018-11-29T14:47:55.346Z,18.87
2018-11-29T14:50:35.046Z,18.93
2018-11-29T14:53:03.398Z,19.43
2018-11-29T14:55:31.763Z,20.13
2018-11-29T14:58:00.083Z,19.87
2018-11-29T15:00:28.399Z,20.83
2018-11-29T15:02:57.757Z,20.00
2018-11-29T15:05:28.369Z,20.90
2018-11-29T15:07:56.728Z,19.50
2018-11-29T15:10:25.041Z,19.43
2018-11-29T15:12:53.382Z,18.33
2018-11-29T15:15:21.713Z,19.07
2018-11-29T15:17:51.321Z,18.93
2018-11-29T15:20:25.759Z,19.00
2018-11-29T15:22:54.123Z,17.50
2018-11-29T15:25:22.472Z,17.07
2018-11-29T15:27:50.834Z,18.20
2018-11-29T15:30:20.593Z,17.90
2018-11-29T15:32:48.865Z,17.97
2018-11-29T15:35:17.195Z,17.17
2018-11-29T15:37:45.549Z,19.73
2018-11-29T15:40:16.036Z,32.37
2018-11-29T15:42:44.450Z,26.87
2018-11-29T15:45:15.979Z,14.57
2018-11-29T15:47:44.320Z,16.17
2018-11-29T15:50:13.868Z,14.50
2018-11-29T15:52:42.183Z,13.57
2018-11-29T15:55:14.671Z,13.80
2018-11-29T15:57:43.291Z,13.90
2018-11-29T16:00:18.897Z,13.17
2018-11-29T16:02:47.910Z,13.67
2018-11-29T16:05:16.944Z,14.10
2018-11-29T16:07:45.281Z,12.93
2018-11-29T16:10:14.700Z,24.50
2018-11-29T16:12:43.021Z,75.53
2018-11-29T16:15:13.354Z,23.67
2018-11-29T16:17:41.710Z,17.57
2018-11-29T16:20:19.178Z,14.93
2018-11-29T16:22:47.531Z,12.57
2018-11-29T16:25:15.867Z,12.97
2018-11-29T16:27:44.224Z,13.53
2018-11-29T16:30:22.213Z,12.53
2018-11-29T16:32:50.516Z,12.20
2018-11-29T16:35:18.848Z,12.47
2018-11-29T16:37:47.180Z,11.88
2018-11-29T16:40:15.546Z,11.63
2018-11-29T16:42:43.885Z,11.57
2018-11-29T16:45:13.315Z,11.70
2018-11-29T16:47:42.195Z,11.30
2018-11-29T16:50:14.553Z,12.70
2018-11-29T16:52:42.923Z,12.83
2018-11-29T16:55:11.921Z,12.93
2018-11-29T16:57:42.169Z,12.37
2018-11-29T17:00:15.597Z,12.73
2018-11-29T17:02:43.925Z,12.83
2018-11-29T17:05:13.278Z,13.43
2018-11-29T17:07:41.569Z,15.43
2018-11-29T17:10:12.791Z,15.17
2018-11-29T17:12:41.655Z,14.00
2018-11-29T17:15:13.329Z,14.33
2018-11-29T17:17:41.743Z,13.83
2018-11-29T17:20:14.443Z,15.60
2018-11-29T17:22:42.863Z,15.47
2018-11-29T17:25:12.233Z,15.50
2018-11-29T17:27:40.539Z,15.70
2018-11-29T17:30:15.102Z,15.23
2018-11-29T17:32:43.710Z,15.43
2018-11-29T17:35:12.110Z,14.47
2018-11-29T17:37:40.457Z,16.60
2018-11-29T17:40:12.159Z,15.50
2018-11-29T17:42:40.532Z,17.53
2018-11-29T17:45:10.729Z,16.27
2018-11-29T17:47:39.064Z,16.67
2018-11-29T17:50:12.829Z,19.27
2018-11-29T17:52:41.169Z,52.17
2018-11-29T17:55:09.601Z,24.93
2018-11-29T17:57:37.971Z,16.80
2018-11-29T18:01:15.793Z,16.67
2018-11-29T18:03:44.156Z,17.53
2018-11-29T18:06:12.516Z,16.97
2018-11-29T18:08:40.883Z,17.53
2018-11-29T18:11:09.218Z,17.47
2018-11-29T18:13:38.635Z,16.80
2018-11-29T18:16:07.052Z,17.27
2018-11-29T18:18:35.409Z,17.77
2018-11-29T18:21:03.793Z,17.30
2018-11-29T18:23:32.167Z,19.20
2018-11-29T18:26:00.538Z,18.90
2018-11-29T18:28:29.039Z,18.53
2018-11-29T18:30:57.459Z,18.80
2018-11-29T18:33:25.837Z,18.43
2018-11-29T18:35:54.225Z,17.87
2018-11-29T18:38:22.585Z,17.63
2018-11-29T18:40:50.972Z,18.03
2018-11-29T18:43:19.325Z,19.00
2018-11-29T18:45:47.735Z,18.67
2018-11-29T18:48:16.785Z,17.80
2018-11-29T18:50:45.213Z,18.27
2018-11-29T18:53:13.697Z,19.17
2018-11-29T18:55:42.146Z,20.40
2018-11-29T18:58:10.620Z,18.63
2018-11-29T19:00:39.024Z,17.47
2018-11-29T19:03:08.059Z,17.00
2018-11-29T19:05:36.791Z,17.63
2018-11-29T19:08:05.871Z,18.03
2018-11-29T19:10:34.390Z,18.07
2018-11-29T19:13:04.526Z,18.60
2018-11-29T19:15:33.340Z,18.83
2018-11-29T19:18:01.731Z,19.40
2018-11-29T19:20:30.170Z,19.17
2018-11-29T19:23:01.959Z,17.80
2018-11-29T19:25:30.481Z,18.73
2018-11-29T19:27:58.920Z,18.83
2018-11-29T19:30:29.069Z,17.57
2018-11-29T19:33:03.834Z,15.17
2018-11-29T19:35:32.293Z,14.27
2018-11-29T19:38:00.886Z,13.97
2018-11-29T19:40:29.920Z,14.40
2018-11-29T19:42:58.471Z,14.40
2018-11-29T19:45:27.074Z,30.50
2018-11-29T19:47:56.488Z,37.10
2018-11-29T19:50:24.952Z,15.33
2018-11-29T19:52:56.013Z,12.37
2018-11-29T19:55:25.893Z,11.13
2018-11-29T19:57:54.956Z,11.73
2018-11-29T20:00:23.407Z,10.97
2018-11-29T20:02:53.292Z,11.60
2018-11-29T20:05:21.989Z,12.23
2018-11-29T20:07:50.559Z,12.70
2018-11-29T20:10:19.585Z,13.17
2018-11-29T20:12:53.603Z,11.97
2018-11-29T20:15:22.074Z,9.83
2018-11-29T20:17:50.907Z,10.27
2018-11-29T20:20:20.215Z,8.90
2018-11-29T20:22:49.152Z,8.90
2018-11-29T20:25:18.909Z,8.63
2018-11-29T20:27:47.357Z,8.47
2018-11-29T20:30:19.242Z,9.27
2018-11-29T20:32:48.643Z,8.87
2018-11-29T20:35:18.192Z,8.10
2018-11-29T20:37:46.958Z,8.53
2018-11-29T20:40:23.091Z,7.23
2018-11-29T20:42:53.115Z,7.07
2018-11-29T20:45:29.928Z,7.63
2018-11-29T20:47:58.481Z,13.23
2018-11-29T20:50:28.338Z,16.87
2018-11-29T20:52:59.083Z,22.47
2018-11-29T20:55:29.677Z,22.27
2018-11-29T20:57:58.244Z,18.37
2018-11-29T21:00:26.836Z,16.00
2018-11-29T21:02:55.435Z,15.77
2018-11-29T21:05:25.674Z,13.80
2018-11-29T21:07:55.901Z,15.37
2018-11-29T21:10:25.909Z,13.23
2018-11-29T21:12:54.473Z,12.80
2018-11-29T21:15:23.641Z,11.67
2018-11-29T21:17:52.405Z,10.00
2018-11-29T21:20:21.392Z,9.90
2018-11-29T21:22:51.160Z,8.90
2018-11-29T21:25:21.868Z,8.50
2018-11-29T21:27:50.313Z,8.00
2018-11-29T21:30:18.753Z,7.47
2018-11-29T21:32:47.489Z,7.33
2018-11-29T21:35:17.991Z,7.40
2018-11-29T21:37:46.670Z,7.33
2018-11-29T21:40:21.438Z,6.60
2018-11-29T21:42:49.865Z,7.33
2018-11-29T21:45:18.361Z,6.63
2018-11-29T21:47:46.776Z,6.43
2018-11-29T21:50:15.139Z,9.10
2018-11-29T21:52:43.494Z,11.47
2018-11-29T21:55:12.215Z,15.10
2018-11-29T21:57:41.767Z,10.87
2018-11-29T22:00:13.871Z,8.20
2018-11-29T22:02:44.311Z,8.70
2018-11-29T22:05:13.003Z,8.10
2018-11-29T22:07:41.672Z,8.30
2018-11-29T22:10:11.076Z,7.70
2018-11-29T22:12:40.656Z,7.87
2018-11-29T22:15:11.158Z,7.13
2018-11-29T22:18:44.896Z,6.10
2018-11-29T22:21:13.552Z,5.47
2018-11-29T22:23:42.282Z,4.80
2018-11-29T22:26:12.326Z,4.80
2018-11-29T22:28:41.692Z,5.00
2018-11-29T22:31:12.778Z,5.30
2018-11-29T22:33:41.432Z,4.50
2018-11-29T22:36:10.019Z,4.73
2018-11-29T22:38:38.612Z,4.57
2018-11-29T22:41:07.008Z,3.87
2018-11-29T22:43:35.302Z,4.43
2018-11-29T22:46:03.586Z,4.30
2018-11-29T22:48:31.912Z,4.07
2018-11-29T22:50:59.928Z,4.20
2018-11-29T22:53:27.936Z,3.70
2018-11-29T22:55:55.972Z,3.80
2018-11-29T22:58:23.988Z,3.77
2018-11-29T23:00:52.735Z,3.60
2018-11-29T23:03:20.934Z,3.77
2018-11-29T23:05:48.962Z,3.43
2018-11-29T23:08:16.989Z,3.60
2018-11-29T23:10:45.027Z,3.80
2018-11-29T23:13:13.074Z,3.40
2018-11-29T23:15:41.121Z,3.97
2018-11-29T23:18:09.137Z,3.70
2018-11-29T23:20:37.166Z,3.80
2018-11-29T23:23:05.199Z,3.57
2018-11-29T23:25:34.112Z,3.63
2018-11-29T23:28:02.256Z,3.20
2018-11-29T23:30:30.321Z,3.80
2018-11-29T23:32:58.331Z,3.77
2018-11-29T23:35:26.343Z,3.40
2018-11-29T23:37:54.365Z,3.37
2018-11-29T23:40:22.365Z,3.67
2018-11-29T23:42:50.389Z,3.50
2018-11-29T23:45:18.427Z,4.00
2018-11-29T23:47:46.449Z,3.53
2018-11-29T23:50:15.032Z,3.70
2018-11-29T23:52:43.143Z,3.70
2018-11-29T23:55:11.796Z,4.00
2018-11-29T23:57:39.821Z,4.07
